sensor_id;sensor_type;location;lat;lon;timestamp;pressure;altitude;pressure_sealevel;temperature
19102;BMP280;9683;49.028;12.064;2023-04-25T00:01:29;96548.94;;;12.71
19102;BMP280;9683;49.028;12.064;2023-04-25T00:03:57;96541.41;;;12.68
19102;BMP280;9683;49.028;12.064;2023-04-25T00:06:23;96541.69;;;12.66
19102;BMP280;9683;49.028;12.064;2023-04-25T00:08:51;96537.69;;;12.69
19102;BMP280;9683;49.028;12.064;2023-04-25T00:11:18;96531.03;;;12.71
19102;BMP280;9683;49.028;12.064;2023-04-25T00:13:45;96536.88;;;12.68
19102;BMP280;9683;49.028;12.064;2023-04-25T00:16:12;96522.13;;;12.61
19102;BMP280;9683;49.028;12.064;2023-04-25T00:18:39;96540.88;;;12.66
19102;BMP280;9683;49.028;12.064;2023-04-25T00:21:08;96531.25;;;12.65
19102;BMP280;9683;49.028;12.064;2023-04-25T00:23:35;96541.88;;;12.60
19102;BMP280;9683;49.028;12.064;2023-04-25T00:26:02;96530.38;;;12.59
19102;BMP280;9683;49.028;12.064;2023-04-25T00:28:29;96537.06;;;12.57
19102;BMP280;9683;49.028;12.064;2023-04-25T00:30:56;96539.16;;;12.55
19102;BMP280;9683;49.028;12.064;2023-04-25T00:33:22;96529.03;;;12.57
19102;BMP280;9683;49.028;12.064;2023-04-25T00:35:49;96526.56;;;12.50
19102;BMP280;9683;49.028;12.064;2023-04-25T00:38:17;96528.81;;;12.58
19102;BMP280;9683;49.028;12.064;2023-04-25T00:40:43;96533.31;;;12.58
19102;BMP280;9683;49.028;12.064;2023-04-25T00:43:10;96531.41;;;12.53
19102;BMP280;9683;49.028;12.064;2023-04-25T00:45:38;96533.53;;;12.51
19102;BMP280;9683;49.028;12.064;2023-04-25T00:48:06;96537.22;;;12.45
19102;BMP280;9683;49.028;12.064;2023-04-25T00:50:33;96529.50;;;12.49
19102;BMP280;9683;49.028;12.064;2023-04-25T00:53:00;96521.75;;;12.47
19102;BMP280;9683;49.028;12.064;2023-04-25T00:55:28;96522.78;;;12.46
19102;BMP280;9683;49.028;12.064;2023-04-25T00:57:56;96530.50;;;12.43
19102;BMP280;9683;49.028;12.064;2023-04-25T01:00:23;96521.97;;;12.40
19102;BMP280;9683;49.028;12.064;2023-04-25T01:02:50;96516.34;;;12.42
19102;BMP280;9683;49.028;12.064;2023-04-25T01:05:16;96520.88;;;12.41
19102;BMP280;9683;49.028;12.064;2023-04-25T01:07:44;96518.22;;;12.41
19102;BMP280;9683;49.028;12.064;2023-04-25T01:10:12;96505.03;;;12.30
19102;BMP280;9683;49.028;12.064;2023-04-25T01:12:40;96523.25;;;12.38
19102;BMP280;9683;49.028;12.064;2023-04-25T01:15:07;96522.16;;;12.34
19102;BMP280;9683;49.028;12.064;2023-04-25T01:17:35;96524.56;;;12.35
19102;BMP280;9683;49.028;12.064;2023-04-25T01:20:03;96523.53;;;12.36
19102;BMP280;9683;49.028;12.064;2023-04-25T01:22:32;96514.91;;;12.29
19102;BMP280;9683;49.028;12.064;2023-04-25T01:24:59;96531.53;;;12.36
19102;BMP280;9683;49.028;12.064;2023-04-25T01:27:27;96528.06;;;12.36
19102;BMP280;9683;49.028;12.064;2023-04-25T01:29:54;96528.59;;;12.38
19102;BMP280;9683;49.028;12.064;2023-04-25T01:32:21;96520.34;;;12.39
19102;BMP280;9683;49.028;12.064;2023-04-25T01:34:48;96527.28;;;12.40
19102;BMP280;9683;49.028;12.064;2023-04-25T01:37:16;96523.56;;;12.41
19102;BMP280;9683;49.028;12.064;2023-04-25T01:39:50;96535.53;;;12.39
19102;BMP280;9683;49.028;12.064;2023-04-25T01:42:17;96524.56;;;12.35
19102;BMP280;9683;49.028;12.064;2023-04-25T01:44:44;96526.13;;;12.31
19102;BMP280;9683;49.028;12.064;2023-04-25T01:47:11;96528.00;;;12.31
19102;BMP280;9683;49.028;12.064;2023-04-25T01:49:37;96525.34;;;12.31
19102;BMP280;9683;49.028;12.064;2023-04-25T01:52:04;96532.28;;;12.32
19102;BMP280;9683;49.028;12.064;2023-04-25T01:54:31;96521.81;;;12.25
19102;BMP280;9683;49.028;12.064;2023-04-25T01:56:59;96534.19;;;12.36
19102;BMP280;9683;49.028;12.064;2023-04-25T01:59:26;96511.94;;;12.26
19102;BMP280;9683;49.028;12.064;2023-04-25T02:01:53;96528.09;;;12.41
19102;BMP280;9683;49.028;12.064;2023-04-25T02:04:20;96521.16;;;12.40
19102;BMP280;9683;49.028;12.064;2023-04-25T02:06:46;96523.13;;;12.50
19102;BMP280;9683;49.028;12.064;2023-04-25T02:09:13;96515.91;;;12.50
19102;BMP280;9683;49.028;12.064;2023-04-25T02:11:39;96505.97;;;12.40
19102;BMP280;9683;49.028;12.064;2023-04-25T02:14:07;96521.69;;;12.42
19102;BMP280;9683;49.028;12.064;2023-04-25T02:16:34;96514.72;;;12.36
19102;BMP280;9683;49.028;12.064;2023-04-25T02:19:01;96516.00;;;12.33
19102;BMP280;9683;49.028;12.064;2023-04-25T02:21:27;96511.47;;;12.34
19102;BMP280;9683;49.028;12.064;2023-04-25T02:23:54;96513.34;;;12.33
19102;BMP280;9683;49.028;12.064;2023-04-25T02:26:21;96520.56;;;12.33
19102;BMP280;9683;49.028;12.064;2023-04-25T02:28:49;96508.00;;;12.33
19102;BMP280;9683;49.028;12.064;2023-04-25T02:31:17;96508.28;;;12.32
19102;BMP280;9683;49.028;12.064;2023-04-25T02:33:44;96515.19;;;12.28
19102;BMP280;9683;49.028;12.064;2023-04-25T02:36:10;96512.50;;;12.28
19102;BMP280;9683;49.028;12.064;2023-04-25T02:38:37;96498.59;;;12.26
19102;BMP280;9683;49.028;12.064;2023-04-25T02:41:04;96496.97;;;12.25
19102;BMP280;9683;49.028;12.064;2023-04-25T02:43:31;96503.63;;;12.22
19102;BMP280;9683;49.028;12.064;2023-04-25T02:45:57;96503.09;;;12.20
19102;BMP280;9683;49.028;12.064;2023-04-25T02:48:25;96497.50;;;12.22
19102;BMP280;9683;49.028;12.064;2023-04-25T02:50:52;96490.53;;;12.21
19102;BMP280;9683;49.028;12.064;2023-04-25T02:53:18;96497.78;;;12.20
19102;BMP280;9683;49.028;12.064;2023-04-25T02:55:45;96496.97;;;12.20
19102;BMP280;9683;49.028;12.064;2023-04-25T02:58:12;96489.78;;;12.20
19102;BMP280;9683;49.028;12.064;2023-04-25T03:00:38;96494.84;;;12.22
19102;BMP280;9683;49.028;12.064;2023-04-25T03:03:05;96482.00;;;12.19
19102;BMP280;9683;49.028;12.064;2023-04-25T03:05:33;96480.69;;;12.21
19102;BMP280;9683;49.028;12.064;2023-04-25T03:08:00;96483.31;;;12.16
19102;BMP280;9683;49.028;12.064;2023-04-25T03:10:26;96475.81;;;12.13
19102;BMP280;9683;49.028;12.064;2023-04-25T03:12:53;96477.19;;;12.16
19102;BMP280;9683;49.028;12.064;2023-04-25T03:15:19;96475.31;;;12.16
19102;BMP280;9683;49.028;12.064;2023-04-25T03:17:46;96473.44;;;12.17
19102;BMP280;9683;49.028;12.064;2023-04-25T03:20:13;96473.94;;;12.14
19102;BMP280;9683;49.028;12.064;2023-04-25T03:22:41;96469.66;;;12.13
19102;BMP280;9683;49.028;12.064;2023-04-25T03:25:08;96467.28;;;12.11
19102;BMP280;9683;49.028;12.064;2023-04-25T03:27:34;96461.94;;;12.11
19102;BMP280;9683;49.028;12.064;2023-04-25T03:30:01;96472.63;;;12.11
19102;BMP280;9683;49.028;12.064;2023-04-25T03:32:28;96469.66;;;12.13
19102;BMP280;9683;49.028;12.064;2023-04-25T03:34:54;96472.34;;;12.13
19102;BMP280;9683;49.028;12.064;2023-04-25T03:37:21;96461.38;;;12.09
19102;BMP280;9683;49.028;12.064;2023-04-25T03:39:49;96474.47;;;12.11
19102;BMP280;9683;49.028;12.064;2023-04-25T03:42:16;96465.66;;;12.10
19102;BMP280;9683;49.028;12.064;2023-04-25T03:44:43;96469.38;;;12.09
19102;BMP280;9683;49.028;12.064;2023-04-25T03:47:09;96489.09;;;12.08
19102;BMP280;9683;49.028;12.064;2023-04-25T03:49:36;96482.16;;;12.07
19102;BMP280;9683;49.028;12.064;2023-04-25T03:52:02;96478.13;;;12.05
19102;BMP280;9683;49.028;12.064;2023-04-25T03:54:29;96480.25;;;12.03
19102;BMP280;9683;49.028;12.064;2023-04-25T03:56:57;96476.78;;;12.02
19102;BMP280;9683;49.028;12.064;2023-04-25T03:59:24;96482.88;;;11.98
19102;BMP280;9683;49.028;12.064;2023-04-25T04:01:51;96479.91;;;11.94
19102;BMP280;9683;49.028;12.064;2023-04-25T04:04:18;96485.22;;;11.94
19102;BMP280;9683;49.028;12.064;2023-04-25T04:06:45;96488.94;;;11.93
19102;BMP280;9683;49.028;12.064;2023-04-25T04:09:12;96471.09;;;11.93
19102;BMP280;9683;49.028;12.064;2023-04-25T04:11:39;96468.44;;;11.93
19102;BMP280;9683;49.028;12.064;2023-04-25T04:14:07;96471.97;;;11.99
19102;BMP280;9683;49.028;12.064;2023-04-25T04:16:35;96473.53;;;12.00
19102;BMP280;9683;49.028;12.064;2023-04-25T04:19:02;96454.50;;;11.86
19102;BMP280;9683;49.028;12.064;2023-04-25T04:21:29;96474.88;;;11.98
19102;BMP280;9683;49.028;12.064;2023-04-25T04:23:55;96476.19;;;11.95
19102;BMP280;9683;49.028;12.064;2023-04-25T04:26:23;96465.53;;;11.95
19102;BMP280;9683;49.028;12.064;2023-04-25T04:28:51;96463.41;;;11.97
19102;BMP280;9683;49.028;12.064;2023-04-25T04:31:20;96471.69;;;12.01
19102;BMP280;9683;49.028;12.064;2023-04-25T04:33:47;96468.50;;;11.99
19102;BMP280;9683;49.028;12.064;2023-04-25T04:36:14;96451.31;;;11.89
19102;BMP280;9683;49.028;12.064;2023-04-25T04:38:41;96461.31;;;12.04
19102;BMP280;9683;49.028;12.064;2023-04-25T04:41:07;96465.38;;;12.07
19102;BMP280;9683;49.028;12.064;2023-04-25T04:43:34;96454.44;;;12.08
19102;BMP280;9683;49.028;12.064;2023-04-25T04:46:02;96460.09;;;12.12
19102;BMP280;9683;49.028;12.064;2023-04-25T04:48:30;96460.38;;;12.15
19102;BMP280;9683;49.028;12.064;2023-04-25T04:50:59;96469.19;;;12.16
19102;BMP280;9683;49.028;12.064;2023-04-25T04:53:26;96459.00;;;12.13
19102;BMP280;9683;49.028;12.064;2023-04-25T04:55:54;96461.13;;;12.11
19102;BMP280;9683;49.028;12.064;2023-04-25T04:58:21;96460.78;;;12.02
19102;BMP280;9683;49.028;12.064;2023-04-25T05:00:48;96472.31;;;12.08
19102;BMP280;9683;49.028;12.064;2023-04-25T05:03:14;96474.41;;;12.06
19102;BMP280;9683;49.028;12.064;2023-04-25T05:05:42;96470.41;;;12.03
19102;BMP280;9683;49.028;12.064;2023-04-25T05:08:10;96461.47;;;11.92
19102;BMP280;9683;49.028;12.064;2023-04-25T05:10:36;96477.53;;;11.98
19102;BMP280;9683;49.028;12.064;2023-04-25T05:13:03;96465.72;;;11.88
19102;BMP280;9683;49.028;12.064;2023-04-25T05:15:30;96473.75;;;11.93
19102;BMP280;9683;49.028;12.064;2023-04-25T05:17:56;96471.38;;;11.97
19102;BMP280;9683;49.028;12.064;2023-04-25T05:20:23;96471.63;;;11.95
19102;BMP280;9683;49.028;12.064;2023-04-25T05:22:51;96475.06;;;11.91
19102;BMP280;9683;49.028;12.064;2023-04-25T05:25:17;96473.94;;;11.87
19102;BMP280;9683;49.028;12.064;2023-04-25T05:27:44;96473.94;;;11.87
19102;BMP280;9683;49.028;12.064;2023-04-25T05:30:11;96475.25;;;11.84
19102;BMP280;9683;49.028;12.064;2023-04-25T05:32:38;96465.63;;;11.78
19102;BMP280;9683;49.028;12.064;2023-04-25T05:35:06;96456.75;;;11.73
19102;BMP280;9683;49.028;12.064;2023-04-25T05:37:33;96474.09;;;11.75
19102;BMP280;9683;49.028;12.064;2023-04-25T05:40:02;96466.66;;;11.77
19102;BMP280;9683;49.028;12.064;2023-04-25T05:42:32;96473.03;;;11.76
19102;BMP280;9683;49.028;12.064;2023-04-25T05:44:59;96474.38;;;11.79
19102;BMP280;9683;49.028;12.064;2023-04-25T05:47:26;96475.47;;;11.78
19102;BMP280;9683;49.028;12.064;2023-04-25T05:49:52;96476.22;;;11.73
19102;BMP280;9683;49.028;12.064;2023-04-25T05:52:19;96466.91;;;11.76
19102;BMP280;9683;49.028;12.064;2023-04-25T05:54:46;96472.06;;;11.82
19102;BMP280;9683;49.028;12.064;2023-04-25T05:57:20;96471.53;;;11.85
19102;BMP280;9683;49.028;12.064;2023-04-25T05:59:47;96450.09;;;11.75
19102;BMP280;9683;49.028;12.064;2023-04-25T06:02:13;96465.66;;;11.83
19102;BMP280;9683;49.028;12.064;2023-04-25T06:04:40;96472.59;;;11.84
19102;BMP280;9683;49.028;12.064;2023-04-25T06:07:07;96474.00;;;11.92
19102;BMP280;9683;49.028;12.064;2023-04-25T06:09:34;96466.88;;;11.98
19102;BMP280;9683;49.028;12.064;2023-04-25T06:12:01;96463.41;;;11.97
19102;BMP280;9683;49.028;12.064;2023-04-25T06:14:29;96465.25;;;11.97
19102;BMP280;9683;49.028;12.064;2023-04-25T06:16:56;96467.41;;;12.00
19102;BMP280;9683;49.028;12.064;2023-04-25T06:19:23;96465.88;;;12.04
19102;BMP280;9683;49.028;12.064;2023-04-25T06:21:49;96465.91;;;12.09
19102;BMP280;9683;49.028;12.064;2023-04-25T06:24:16;96457.66;;;12.10
19102;BMP280;9683;49.028;12.064;2023-04-25T06:26:43;96464.31;;;12.08
19102;BMP280;9683;49.028;12.064;2023-04-25T06:29:09;96452.03;;;12.07
19102;BMP280;9683;49.028;12.064;2023-04-25T06:31:37;96456.03;;;12.09
19102;BMP280;9683;49.028;12.064;2023-04-25T06:34:04;96458.97;;;12.08
19102;BMP280;9683;49.028;12.064;2023-04-25T06:36:30;96449.59;;;12.05
19102;BMP280;9683;49.028;12.064;2023-04-25T06:38:57;96452.72;;;11.97
19102;BMP280;9683;49.028;12.064;2023-04-25T06:41:24;96459.09;;;11.96
19102;BMP280;9683;49.028;12.064;2023-04-25T06:43:50;96456.16;;;11.92
19102;BMP280;9683;49.028;12.064;2023-04-25T06:46:17;96442.28;;;11.90
19102;BMP280;9683;49.028;12.064;2023-04-25T06:48:45;96459.63;;;11.93
19102;BMP280;9683;49.028;12.064;2023-04-25T06:51:12;96447.25;;;11.82
19102;BMP280;9683;49.028;12.064;2023-04-25T06:53:39;96461.13;;;11.84
19102;BMP280;9683;49.028;12.064;2023-04-25T06:56:06;96462.97;;;11.83
19102;BMP280;9683;49.028;12.064;2023-04-25T06:58:32;96464.53;;;11.79
19102;BMP280;9683;49.028;12.064;2023-04-25T07:00:59;96431.72;;;11.52
19102;BMP280;9683;49.028;12.064;2023-04-25T07:03:26;96475.16;;;11.53
19102;BMP280;9683;49.028;12.064;2023-04-25T07:05:54;96465.16;;;11.43
19102;BMP280;9683;49.028;12.064;2023-04-25T07:08:20;96475.06;;;11.26
19102;BMP280;9683;49.028;12.064;2023-04-25T07:10:47;96458.09;;;11.10
19102;BMP280;9683;49.028;12.064;2023-04-25T07:13:14;96469.59;;;11.16
19102;BMP280;9683;49.028;12.064;2023-04-25T07:15:40;96463.72;;;11.14
19102;BMP280;9683;49.028;12.064;2023-04-25T07:18:07;96465.38;;;11.20
19102;BMP280;9683;49.028;12.064;2023-04-25T07:20:34;96465.53;;;11.30
19102;BMP280;9683;49.028;12.064;2023-04-25T07:23:02;96460.34;;;11.40
19102;BMP280;9683;49.028;12.064;2023-04-25T07:25:28;96455.00;;;11.40
19102;BMP280;9683;49.028;12.064;2023-04-25T07:27:55;96484.72;;;11.54
19102;BMP280;9683;49.028;12.064;2023-04-25T07:30:22;96457.09;;;11.60
19102;BMP280;9683;49.028;12.064;2023-04-25T07:32:49;96457.56;;;11.73
19102;BMP280;9683;49.028;12.064;2023-04-25T07:35:16;96464.59;;;11.84
19102;BMP280;9683;49.028;12.064;2023-04-25T07:37:43;96458.28;;;11.90
19102;BMP280;9683;49.028;12.064;2023-04-25T07:40:12;96455.59;;;11.90
19102;BMP280;9683;49.028;12.064;2023-04-25T07:42:38;96447.00;;;11.83
19102;BMP280;9683;49.028;12.064;2023-04-25T07:45:06;96454.19;;;11.83
19102;BMP280;9683;49.028;12.064;2023-04-25T07:47:33;96433.63;;;11.57
19102;BMP280;9683;49.028;12.064;2023-04-25T07:49:59;96464.81;;;11.78
19102;BMP280;9683;49.028;12.064;2023-04-25T07:52:26;96478.59;;;11.75
19102;BMP280;9683;49.028;12.064;2023-04-25T07:54:53;96465.78;;;11.72
19102;BMP280;9683;49.028;12.064;2023-04-25T07:57:21;96458.16;;;11.80
19102;BMP280;9683;49.028;12.064;2023-04-25T07:59:47;96462.00;;;11.89
19102;BMP280;9683;49.028;12.064;2023-04-25T08:02:14;96401.50;;;11.68
19102;BMP280;9683;49.028;12.064;2023-04-25T08:04:40;96454.19;;;12.10
19102;BMP280;9683;49.028;12.064;2023-04-25T08:07:07;96446.47;;;12.13
19102;BMP280;9683;49.028;12.064;2023-04-25T08:09:33;96441.44;;;12.17
19102;BMP280;9683;49.028;12.064;2023-04-25T08:12:02;96453.78;;;12.23
19102;BMP280;9683;49.028;12.064;2023-04-25T08:14:30;96448.78;;;12.31
19102;BMP280;9683;49.028;12.064;2023-04-25T08:17:01;96450.66;;;12.31
19102;BMP280;9683;49.028;12.064;2023-04-25T08:19:28;96483.69;;;12.30
19102;BMP280;9683;49.028;12.064;2023-04-25T08:21:55;96457.50;;;12.22
19102;BMP280;9683;49.028;12.064;2023-04-25T08:24:21;96459.47;;;12.05
19102;BMP280;9683;49.028;12.064;2023-04-25T08:26:48;96472.75;;;12.00
19102;BMP280;9683;49.028;12.064;2023-04-25T08:29:15;96451.63;;;11.93
19102;BMP280;9683;49.028;12.064;2023-04-25T08:31:43;96455.41;;;11.97
19102;BMP280;9683;49.028;12.064;2023-04-25T08:34:09;96458.31;;;11.95
19102;BMP280;9683;49.028;12.064;2023-04-25T08:36:36;96461.09;;;12.06
19102;BMP280;9683;49.028;12.064;2023-04-25T08:39:03;96452.09;;;12.17
19102;BMP280;9683;49.028;12.064;2023-04-25T08:41:30;96440.38;;;12.18
19102;BMP280;9683;49.028;12.064;2023-04-25T08:43:57;96458.88;;;12.29
19102;BMP280;9683;49.028;12.064;2023-04-25T08:46:25;96463.56;;;12.44
19102;BMP280;9683;49.028;12.064;2023-04-25T08:49:00;96466.56;;;12.53
19102;BMP280;9683;49.028;12.064;2023-04-25T08:51:31;96462.81;;;12.49
19102;BMP280;9683;49.028;12.064;2023-04-25T08:54:08;96488.16;;;12.51
19102;BMP280;9683;49.028;12.064;2023-04-25T08:56:35;96456.53;;;12.33
19102;BMP280;9683;49.028;12.064;2023-04-25T08:59:02;96502.00;;;12.48
19102;BMP280;9683;49.028;12.064;2023-04-25T09:01:29;96483.88;;;12.50
19102;BMP280;9683;49.028;12.064;2023-04-25T09:03:58;96492.44;;;12.52
19102;BMP280;9683;49.028;12.064;2023-04-25T09:06:25;96490.88;;;12.56
19102;BMP280;9683;49.028;12.064;2023-04-25T09:08:52;96503.63;;;12.49
19102;BMP280;9683;49.028;12.064;2023-04-25T09:11:19;96524.63;;;12.40
19102;BMP280;9683;49.028;12.064;2023-04-25T09:13:46;96510.75;;;12.12
19102;BMP280;9683;49.028;12.064;2023-04-25T09:16:12;96512.06;;;11.87
19102;BMP280;9683;49.028;12.064;2023-04-25T09:18:42;96514.69;;;11.82
19102;BMP280;9683;49.028;12.064;2023-04-25T09:21:11;96522.72;;;11.66
19102;BMP280;9683;49.028;12.064;2023-04-25T09:23:43;96522.34;;;11.57
19102;BMP280;9683;49.028;12.064;2023-04-25T09:26:10;96534.59;;;11.58
19102;BMP280;9683;49.028;12.064;2023-04-25T09:28:39;96523.91;;;11.53
19102;BMP280;9683;49.028;12.064;2023-04-25T09:31:09;96524.50;;;11.60
19102;BMP280;9683;49.028;12.064;2023-04-25T09:33:37;96516.03;;;11.63
19102;BMP280;9683;49.028;12.064;2023-04-25T09:36:06;96526.03;;;11.73
19102;BMP280;9683;49.028;12.064;2023-04-25T09:38:40;96525.66;;;11.86
19102;BMP280;9683;49.028;12.064;2023-04-25T09:41:07;96531.81;;;11.86
19102;BMP280;9683;49.028;12.064;2023-04-25T09:43:34;96523.28;;;11.89
19102;BMP280;9683;49.028;12.064;2023-04-25T09:46:02;96552.63;;;11.89
19102;BMP280;9683;49.028;12.064;2023-04-25T09:48:29;96546.31;;;11.74
19102;BMP280;9683;49.028;12.064;2023-04-25T09:51:06;96556.16;;;11.73
19102;BMP280;9683;49.028;12.064;2023-04-25T09:53:35;96552.28;;;11.64
19102;BMP280;9683;49.028;12.064;2023-04-25T09:56:04;96519.84;;;11.50
19102;BMP280;9683;49.028;12.064;2023-04-25T09:58:32;96529.69;;;11.50
19102;BMP280;9683;49.028;12.064;2023-04-25T10:01:00;96549.09;;;11.67
19102;BMP280;9683;49.028;12.064;2023-04-25T10:03:29;96553.94;;;11.70
19102;BMP280;9683;49.028;12.064;2023-04-25T10:05:57;96556.88;;;11.69
19102;BMP280;9683;49.028;12.064;2023-04-25T10:08:27;96547.56;;;11.71
19102;BMP280;9683;49.028;12.064;2023-04-25T10:10:59;96553.06;;;11.81
19102;BMP280;9683;49.028;12.064;2023-04-25T10:13:27;96531.72;;;11.81
19102;BMP280;9683;49.028;12.064;2023-04-25T10:15:55;96539.38;;;12.00
19102;BMP280;9683;49.028;12.064;2023-04-25T10:18:23;96549.06;;;12.06
19102;BMP280;9683;49.028;12.064;2023-04-25T10:20:50;96536.31;;;12.08
19102;BMP280;9683;49.028;12.064;2023-04-25T10:23:17;96562.16;;;12.07
19102;BMP280;9683;49.028;12.064;2023-04-25T10:25:45;96548.19;;;12.00
19102;BMP280;9683;49.028;12.064;2023-04-25T10:28:13;96556.78;;;11.80
19102;BMP280;9683;49.028;12.064;2023-04-25T10:30:56;96555.47;;;11.66
19102;BMP280;9683;49.028;12.064;2023-04-25T10:33:30;96562.34;;;11.40
19102;BMP280;9683;49.028;12.064;2023-04-25T10:35:58;96580.69;;;11.20
19102;BMP280;9683;49.028;12.064;2023-04-25T10:38:25;96575.03;;;11.17
19102;BMP280;9683;49.028;12.064;2023-04-25T10:41:03;96556.31;;;11.12
19102;BMP280;9683;49.028;12.064;2023-04-25T10:43:36;96568.44;;;11.19
19102;BMP280;9683;49.028;12.064;2023-04-25T10:46:12;96562.84;;;11.21
19102;BMP280;9683;49.028;12.064;2023-04-25T10:48:46;96561.16;;;11.31
19102;BMP280;9683;49.028;12.064;2023-04-25T10:51:17;96546.53;;;11.34
19102;BMP280;9683;49.028;12.064;2023-04-25T10:53:44;96569.97;;;11.54
19102;BMP280;9683;49.028;12.064;2023-04-25T10:56:11;96561.81;;;11.60
19102;BMP280;9683;49.028;12.064;2023-04-25T10:58:43;96561.38;;;11.68
19102;BMP280;9683;49.028;12.064;2023-04-25T11:01:10;96557.19;;;11.72
19102;BMP280;9683;49.028;12.064;2023-04-25T11:03:40;96577.38;;;11.68
19102;BMP280;9683;49.028;12.064;2023-04-25T11:06:26;96561.94;;;11.70
19102;BMP280;9683;49.028;12.064;2023-04-25T11:08:57;96567.34;;;11.75
19102;BMP280;9683;49.028;12.064;2023-04-25T11:11:26;96557.41;;;11.71
19102;BMP280;9683;49.028;12.064;2023-04-25T11:13:56;96563.66;;;11.76
19102;BMP280;9683;49.028;12.064;2023-04-25T11:16:24;96566.56;;;11.75
19102;BMP280;9683;49.028;12.064;2023-04-25T11:18:51;96554.41;;;11.84
19102;BMP280;9683;49.028;12.064;2023-04-25T11:21:17;96559.81;;;11.89
19102;BMP280;9683;49.028;12.064;2023-04-25T11:23:44;96561.66;;;11.88
19102;BMP280;9683;49.028;12.064;2023-04-25T11:26:12;96570.53;;;11.94
19102;BMP280;9683;49.028;12.064;2023-04-25T11:28:39;96556.03;;;11.85
19102;BMP280;9683;49.028;12.064;2023-04-25T11:31:07;96562.53;;;11.94
19102;BMP280;9683;49.028;12.064;2023-04-25T11:33:35;96557.50;;;11.98
19102;BMP280;9683;49.028;12.064;2023-04-25T11:36:02;96508.84;;;11.85
19102;BMP280;9683;49.028;12.064;2023-04-25T11:38:29;96541.19;;;12.16
19102;BMP280;9683;49.028;12.064;2023-04-25T11:40:56;96552.25;;;12.29
19102;BMP280;9683;49.028;12.064;2023-04-25T11:43:23;96566.66;;;12.28
19102;BMP280;9683;49.028;12.064;2023-04-25T11:45:50;96561.56;;;12.27
19102;BMP280;9683;49.028;12.064;2023-04-25T11:48:19;96569.34;;;12.33
19102;BMP280;9683;49.028;12.064;2023-04-25T11:50:46;96553.88;;;12.30
19102;BMP280;9683;49.028;12.064;2023-04-25T11:53:13;96536.25;;;12.29
19102;BMP280;9683;49.028;12.064;2023-04-25T11:55:40;96552.34;;;12.39
19102;BMP280;9683;49.028;12.064;2023-04-25T11:58:06;96566.22;;;12.36
19102;BMP280;9683;49.028;12.064;2023-04-25T12:00:34;96575.63;;;12.44
19102;BMP280;9683;49.028;12.064;2023-04-25T12:03:01;96562.06;;;12.51
19102;BMP280;9683;49.028;12.064;2023-04-25T12:05:30;96535.13;;;12.52
19102;BMP280;9683;49.028;12.064;2023-04-25T12:08:09;96542.50;;;12.72
19102;BMP280;9683;49.028;12.064;2023-04-25T12:10:37;96547.44;;;12.85
19102;BMP280;9683;49.028;12.064;2023-04-25T12:13:18;96534.44;;;12.99
19102;BMP280;9683;49.028;12.064;2023-04-25T12:15:45;96526.97;;;12.96
19102;BMP280;9683;49.028;12.064;2023-04-25T12:18:11;96544.78;;;13.17
19102;BMP280;9683;49.028;12.064;2023-04-25T12:20:39;96545.88;;;13.21
19102;BMP280;9683;49.028;12.064;2023-04-25T12:23:07;96548.53;;;13.21
19102;BMP280;9683;49.028;12.064;2023-04-25T12:25:37;96551.88;;;13.06
19102;BMP280;9683;49.028;12.064;2023-04-25T12:28:11;96553.25;;;13.09
19102;BMP280;9683;49.028;12.064;2023-04-25T12:30:54;96560.47;;;13.13
19102;BMP280;9683;49.028;12.064;2023-04-25T12:33:23;96567.34;;;13.04
19102;BMP280;9683;49.028;12.064;2023-04-25T12:35:51;96558.25;;;13.05
19102;BMP280;9683;49.028;12.064;2023-04-25T12:38:22;96553.81;;;13.11
19102;BMP280;9683;49.028;12.064;2023-04-25T12:40:49;96546.47;;;12.96
19102;BMP280;9683;49.028;12.064;2023-04-25T12:43:15;96558.78;;;13.02
19102;BMP280;9683;49.028;12.064;2023-04-25T12:45:42;96569.59;;;13.12
19102;BMP280;9683;49.028;12.064;2023-04-25T12:48:09;96567.72;;;13.13
19102;BMP280;9683;49.028;12.064;2023-04-25T12:50:36;96569.88;;;13.16
19102;BMP280;9683;49.028;12.064;2023-04-25T12:53:04;96560.81;;;13.17
19102;BMP280;9683;49.028;12.064;2023-04-25T12:55:31;96520.84;;;13.00
19102;BMP280;9683;49.028;12.064;2023-04-25T12:57:57;96575.31;;;13.31
19102;BMP280;9683;49.028;12.064;2023-04-25T13:00:24;96580.88;;;13.24
19102;BMP280;9683;49.028;12.064;2023-04-25T13:02:51;96568.25;;;13.15
19102;BMP280;9683;49.028;12.064;2023-04-25T13:05:18;96581.97;;;13.28
19102;BMP280;9683;49.028;12.064;2023-04-25T13:07:45;96587.59;;;13.32
19102;BMP280;9683;49.028;12.064;2023-04-25T13:10:13;96590.03;;;13.34
19102;BMP280;9683;49.028;12.064;2023-04-25T13:12:40;96598.16;;;13.12
19102;BMP280;9683;49.028;12.064;2023-04-25T13:15:08;96581.00;;;13.08
19102;BMP280;9683;49.028;12.064;2023-04-25T13:17:36;96584.63;;;12.97
19102;BMP280;9683;49.028;12.064;2023-04-25T13:20:04;96604.66;;;12.94
19102;BMP280;9683;49.028;12.064;2023-04-25T13:22:31;96591.53;;;12.93
19102;BMP280;9683;49.028;12.064;2023-04-25T13:24:58;96607.31;;;12.94
19102;BMP280;9683;49.028;12.064;2023-04-25T13:27:26;96593.41;;;12.92
19102;BMP280;9683;49.028;12.064;2023-04-25T13:29:52;96606.69;;;12.82
19102;BMP280;9683;49.028;12.064;2023-04-25T13:32:19;96606.09;;;12.80
19102;BMP280;9683;49.028;12.064;2023-04-25T13:34:45;96606.69;;;12.82
19102;BMP280;9683;49.028;12.064;2023-04-25T13:37:12;96606.69;;;12.82
19102;BMP280;9683;49.028;12.064;2023-04-25T13:39:39;96587.06;;;12.71
19102;BMP280;9683;49.028;12.064;2023-04-25T13:42:05;96615.03;;;12.91
19102;BMP280;9683;49.028;12.064;2023-04-25T13:44:33;96607.97;;;12.79
19102;BMP280;9683;49.028;12.064;2023-04-25T13:47:00;96617.13;;;12.83
19102;BMP280;9683;49.028;12.064;2023-04-25T13:49:26;96628.94;;;12.66
19102;BMP280;9683;49.028;12.064;2023-04-25T13:51:53;96624.72;;;12.70
19102;BMP280;9683;49.028;12.064;2023-04-25T13:54:20;96621.75;;;12.66
19102;BMP280;9683;49.028;12.064;2023-04-25T13:56:47;96632.16;;;12.68
19102;BMP280;9683;49.028;12.064;2023-04-25T13:59:14;96636.38;;;12.64
19102;BMP280;9683;49.028;12.064;2023-04-25T14:01:42;96640.47;;;12.71
19102;BMP280;9683;49.028;12.064;2023-04-25T14:04:08;96620.72;;;12.72
19102;BMP280;9683;49.028;12.064;2023-04-25T14:06:35;96629.53;;;12.73
19102;BMP280;9683;49.028;12.064;2023-04-25T14:09:02;96626.97;;;12.83
19102;BMP280;9683;49.028;12.064;2023-04-25T14:11:30;96631.59;;;12.93